createdAt,value
2019-02-24T03:04:30.301Z,35.60
2019-02-24T04:24:07.074Z,30.00
2019-02-24T05:40:43.784Z,44.40
2019-02-24T06:45:54.642Z,34.83
2019-02-24T06:48:53.966Z,34.73
2019-02-24T08:06:49.207Z,27.03
2019-02-24T08:09:19.728Z,27.77
2019-02-24T08:11:50.296Z,34.90
2019-02-24T08:14:21.170Z,33.20
2019-02-24T08:16:51.642Z,34.67
2019-02-24T08:19:22.196Z,33.13
2019-02-24T08:21:52.688Z,35.17
2019-02-24T08:24:23.184Z,35.87
2019-02-24T08:26:53.655Z,34.87
2019-02-24T08:29:24.192Z,39.10
2019-02-24T08:31:54.603Z,36.67
2019-02-24T08:34:25.316Z,35.33
2019-02-24T08:36:55.737Z,41.17
2019-02-24T08:39:26.099Z,39.10
2019-02-24T08:41:56.845Z,30.53
2019-02-24T08:44:30.575Z,33.83
2019-02-24T08:47:01.284Z,28.10
2019-02-24T08:49:33.192Z,35.83
2019-02-24T08:52:05.740Z,36.93
2019-02-24T08:54:37.377Z,29.50
2019-02-24T08:57:09.581Z,29.97
2019-02-24T08:59:41.881Z,34.43
2019-02-24T09:02:12.499Z,31.97
2019-02-24T09:14:24.816Z,25.43
2019-02-24T09:16:57.749Z,29.57
2019-02-24T09:19:28.304Z,34.00
2019-02-24T09:21:59.787Z,37.17
2019-02-24T09:24:31.328Z,36.33
2019-02-24T09:27:01.858Z,35.30
2019-02-24T09:29:32.414Z,39.50
2019-02-24T09:32:02.978Z,35.93
2019-02-24T09:34:33.433Z,33.67
2019-02-24T09:37:04.792Z,28.60
2019-02-24T09:39:35.250Z,34.00
2019-02-24T09:42:05.660Z,36.53
2019-02-24T09:44:37.846Z,30.93
2019-02-24T09:47:08.337Z,30.30
2019-02-24T09:49:38.776Z,29.17
2019-02-24T09:52:09.160Z,35.83
2019-02-24T09:54:39.555Z,35.93
2019-02-24T09:57:10.008Z,34.53
2019-02-24T09:59:40.447Z,30.00
2019-02-24T10:02:10.913Z,27.70
2019-02-24T10:04:41.322Z,29.07
2019-02-24T10:07:11.749Z,30.27
2019-02-24T10:09:42.776Z,37.90
2019-02-24T10:12:13.175Z,22.67
2019-02-24T10:14:44.523Z,18.80
2019-02-24T10:17:14.911Z,18.67
2019-02-24T10:19:45.284Z,38.97
2019-02-24T10:22:16.043Z,36.57
2019-02-24T10:24:46.416Z,18.80
2019-02-24T10:27:16.868Z,42.43
2019-02-24T10:29:47.256Z,35.10
2019-02-24T10:32:17.712Z,30.77
2019-02-24T10:34:48.152Z,34.07
2019-02-24T10:37:18.520Z,32.40
2019-02-24T10:39:48.900Z,33.97
2019-02-24T10:42:20.547Z,29.60
2019-02-24T10:44:51.028Z,30.07
2019-02-24T10:47:21.404Z,28.47
2019-02-24T10:49:51.795Z,28.83
2019-02-24T10:52:22.262Z,30.70
2019-02-24T10:54:52.681Z,44.70
2019-02-24T10:57:23.160Z,32.27
2019-02-24T10:59:53.652Z,37.73
2019-02-24T11:02:24.086Z,41.37
2019-02-24T11:04:54.566Z,28.70
2019-02-24T11:07:26.809Z,26.30
2019-02-24T11:09:57.305Z,28.60
2019-02-24T11:12:28.052Z,29.77
2019-02-24T11:14:58.596Z,29.10
2019-02-24T11:17:30.116Z,25.63
2019-02-24T11:20:01.807Z,30.70
2019-02-24T11:22:32.356Z,31.03
2019-02-24T11:25:02.805Z,27.33
2019-02-24T11:27:33.302Z,26.37
2019-02-24T11:30:03.808Z,24.90
2019-02-24T11:32:34.361Z,22.60
2019-02-24T11:35:04.920Z,23.83
2019-02-24T11:37:35.368Z,26.10
2019-02-24T11:40:06.727Z,24.67
2019-02-24T11:42:37.176Z,20.07
2019-02-24T11:45:07.879Z,22.87
2019-02-24T11:47:38.427Z,17.10
2019-02-24T11:50:09.014Z,11.47
2019-02-24T11:52:39.472Z,13.83
2019-02-24T11:55:10.016Z,13.90
2019-02-24T11:57:40.577Z,10.90
2019-02-24T12:00:11.191Z,12.43
2019-02-24T12:02:42.030Z,13.67
2019-02-24T12:05:12.643Z,13.47
2019-02-24T12:07:43.047Z,12.77
2019-02-24T12:10:13.608Z,14.40
2019-02-24T12:12:44.108Z,14.23
2019-02-24T12:15:14.524Z,14.97
2019-02-24T12:17:45.111Z,16.60
2019-02-24T12:20:15.654Z,11.93
2019-02-24T12:22:46.134Z,17.17
2019-02-24T12:25:16.624Z,13.43
2019-02-24T12:27:47.044Z,13.67
2019-02-24T12:30:17.494Z,11.53
2019-02-24T12:32:48.004Z,50.03
2019-02-24T12:35:18.395Z,18.53
2019-02-24T12:37:48.868Z,16.70
2019-02-24T12:40:19.332Z,16.77
2019-02-24T12:42:49.889Z,13.83
2019-02-24T12:45:20.286Z,12.00
2019-02-24T12:47:50.772Z,11.47
2019-02-24T12:50:21.264Z,13.20
2019-02-24T12:52:51.753Z,13.23
2019-02-24T12:55:22.223Z,17.60
2019-02-24T12:57:52.678Z,17.73
2019-02-24T13:00:23.109Z,18.53
2019-02-24T13:02:53.703Z,13.40
2019-02-24T13:05:24.293Z,11.73
2019-02-24T13:07:54.768Z,18.13
2019-02-24T13:10:25.328Z,18.40
2019-02-24T13:12:55.904Z,14.03
2019-02-24T13:15:26.289Z,14.57
2019-02-24T13:17:56.684Z,18.77
2019-02-24T13:20:27.079Z,13.97
2019-02-24T13:22:58.608Z,14.90
2019-02-24T13:25:29.121Z,15.53
2019-02-24T13:27:59.595Z,15.47
2019-02-24T13:30:30.108Z,11.27
2019-02-24T13:33:00.568Z,12.60
2019-02-24T13:35:31.087Z,12.03
2019-02-24T13:38:01.620Z,11.13
2019-02-24T13:40:32.101Z,13.13
2019-02-24T13:43:02.569Z,11.50
2019-02-24T13:45:34.092Z,11.17
2019-02-24T13:48:04.556Z,10.80
2019-02-24T13:50:35.123Z,13.17
2019-02-24T13:53:05.540Z,12.87
2019-02-24T13:55:35.964Z,12.30
2019-02-24T13:58:06.385Z,13.77
2019-02-24T14:00:36.256Z,15.77
2019-02-24T14:03:08.840Z,13.97
2019-02-24T14:05:39.308Z,12.63
2019-02-24T14:08:09.815Z,13.90
2019-02-24T14:10:40.496Z,11.83
2019-02-24T14:13:11.076Z,14.77
2019-02-24T15:18:20.952Z,17.07
2019-02-24T15:20:51.344Z,17.17
2019-02-24T15:23:21.823Z,15.00
2019-02-24T15:25:52.299Z,14.67
2019-02-24T15:28:22.660Z,14.70
2019-02-24T15:30:53.126Z,13.57
2019-02-24T15:33:23.572Z,13.27
2019-02-24T15:35:54.041Z,13.30
2019-02-24T15:38:24.404Z,18.10
2019-02-24T15:40:55.108Z,18.40
2019-02-24T15:43:25.571Z,11.60
2019-02-24T15:45:56.011Z,11.07
2019-02-24T15:48:26.372Z,12.37
2019-02-24T15:50:56.844Z,14.33
2019-02-24T15:53:27.321Z,13.13
2019-02-24T15:55:57.808Z,19.70
2019-02-24T15:58:28.254Z,13.93
2019-02-24T16:00:58.716Z,17.00
2019-02-24T16:03:29.236Z,14.67
2019-02-24T16:05:59.680Z,13.23
2019-02-24T16:08:30.210Z,12.13
2019-02-24T16:48:30.052Z,29.07
2019-02-24T19:48:10.616Z,48.93
2019-02-24T20:08:33.454Z,69.20
2019-02-24T20:11:25.417Z,54.77
2019-02-24T20:26:34.449Z,47.73
2019-02-24T20:40:58.597Z,43.23
2019-02-24T21:03:18.043Z,48.37
2019-02-24T21:52:39.005Z,47.23
